createdAt,value
2022-11-30T01:18:13.873Z,8.97
2022-11-30T06:49:39.315Z,7.03
2022-11-30T07:40:02.536Z,8.33
2022-11-30T09:54:50.617Z,12.40
2022-11-30T10:03:15.389Z,8.97
2022-11-30T10:11:38.050Z,11.10
2022-11-30T10:21:45.456Z,10.20
2022-11-30T10:27:52.286Z,10.67
2022-11-30T10:30:23.713Z,10.20
2022-11-30T10:32:55.010Z,8.57
2022-11-30T10:35:36.325Z,8.23
2022-11-30T10:38:52.255Z,10.67
2022-11-30T10:45:01.518Z,10.33
2022-11-30T10:47:37.283Z,9.37
2022-11-30T10:50:07.407Z,11.27
2022-11-30T10:52:46.136Z,7.60
2022-11-30T10:55:18.781Z,9.63
2022-11-30T10:57:55.395Z,10.30
2022-11-30T11:00:27.037Z,13.00
2022-11-30T11:02:55.965Z,15.33
2022-11-30T11:05:26.278Z,13.53
2022-11-30T11:08:06.935Z,12.03
2022-11-30T11:10:47.129Z,13.90
2022-11-30T11:13:19.220Z,11.87
2022-11-30T11:16:08.421Z,12.37
2022-11-30T11:18:53.113Z,14.20
2022-11-30T11:21:22.802Z,10.17
2022-11-30T11:24:02.300Z,14.03
2022-11-30T11:26:32.228Z,10.27
2022-11-30T11:29:22.498Z,14.97
2022-11-30T11:31:52.345Z,10.57
2022-11-30T11:35:04.192Z,9.73
2022-11-30T11:37:39.700Z,14.13
2022-11-30T11:40:21.964Z,17.27
2022-11-30T11:42:54.477Z,10.93
2022-11-30T11:45:26.527Z,12.23
2022-11-30T11:48:01.391Z,9.17
2022-11-30T11:53:27.424Z,11.43
2022-11-30T11:56:08.957Z,11.87
2022-11-30T11:58:45.969Z,11.90
2022-11-30T12:01:40.403Z,10.97
2022-11-30T12:04:31.299Z,8.77
2022-11-30T12:12:38.979Z,13.00
2022-11-30T12:15:14.062Z,16.10
2022-11-30T12:17:57.315Z,12.80
2022-11-30T12:20:44.873Z,11.03
2022-11-30T12:23:33.245Z,12.20
2022-11-30T12:26:13.865Z,13.13
2022-11-30T12:28:54.543Z,9.80
2022-11-30T12:31:26.761Z,8.50
2022-11-30T12:34:06.203Z,9.17
2022-11-30T12:36:50.137Z,9.33
2022-11-30T12:39:27.280Z,9.13
2022-11-30T12:42:00.823Z,8.07
2022-11-30T12:44:53.103Z,9.93
2022-11-30T12:47:41.166Z,10.43
2022-11-30T12:50:37.510Z,9.43
2022-11-30T12:53:19.720Z,9.57
2022-11-30T12:55:58.094Z,8.47
2022-11-30T12:58:37.372Z,12.23
2022-11-30T13:04:24.570Z,11.07
2022-11-30T13:10:44.386Z,9.30
2022-11-30T13:13:17.828Z,8.83
2022-11-30T13:15:47.782Z,11.20
2022-11-30T13:24:20.819Z,8.87
2022-11-30T13:26:56.053Z,9.30
2022-11-30T13:29:54.248Z,10.67
2022-11-30T13:32:56.278Z,13.37
2022-11-30T13:35:44.889Z,8.73
2022-11-30T13:46:58.164Z,11.87
2022-11-30T13:49:31.771Z,16.83
2022-11-30T13:52:22.210Z,10.40
2022-11-30T13:54:51.340Z,9.00
2022-11-30T13:57:59.892Z,11.60
2022-11-30T14:07:11.784Z,10.53
2022-11-30T14:10:08.225Z,9.17
2022-11-30T14:12:58.786Z,9.57
2022-11-30T14:15:57.209Z,10.63
2022-11-30T14:19:06.024Z,11.13
2022-11-30T14:24:26.532Z,9.73
2022-11-30T14:26:56.551Z,12.37
2022-11-30T14:29:30.148Z,10.33
2022-11-30T14:32:02.422Z,14.37
2022-11-30T14:34:36.270Z,13.73
2022-11-30T14:37:16.322Z,12.57
2022-11-30T14:39:48.588Z,11.33
2022-11-30T14:42:22.856Z,8.70
2022-11-30T14:44:51.743Z,12.07
2022-11-30T14:47:24.541Z,12.63
2022-11-30T14:49:56.475Z,10.77
2022-11-30T14:52:43.809Z,9.17
2022-11-30T14:55:25.465Z,9.70
2022-11-30T14:58:07.630Z,9.30
2022-11-30T15:00:39.783Z,11.80
2022-11-30T15:03:19.819Z,11.23
2022-11-30T15:05:51.543Z,9.43
2022-11-30T15:08:20.763Z,10.97
2022-11-30T15:10:51.508Z,10.23
2022-11-30T15:13:22.797Z,8.30
2022-11-30T15:15:53.213Z,9.70
2022-11-30T15:18:23.029Z,8.37
2022-11-30T15:20:56.034Z,9.60
2022-11-30T15:23:24.744Z,11.57
2022-11-30T15:26:00.088Z,13.90
2022-11-30T15:28:32.097Z,9.03
2022-11-30T15:31:03.655Z,10.77
2022-11-30T15:33:38.462Z,12.10
2022-11-30T15:36:28.226Z,10.37
2022-11-30T15:38:56.799Z,9.87
2022-11-30T15:41:28.488Z,9.37
2022-11-30T15:43:58.815Z,10.27
2022-11-30T15:46:37.724Z,10.03
2022-11-30T15:49:17.613Z,13.10
2022-11-30T15:51:53.218Z,7.93
2022-11-30T15:54:47.139Z,9.83
2022-11-30T15:57:16.801Z,7.73
2022-11-30T15:59:45.853Z,11.27
2022-11-30T16:02:28.147Z,8.47
2022-11-30T16:05:14.157Z,8.40
2022-11-30T16:07:51.288Z,10.73
2022-11-30T16:10:22.757Z,9.57
2022-11-30T16:12:53.833Z,10.23
2022-11-30T16:15:24.846Z,13.63
2022-11-30T16:17:55.018Z,11.80
2022-11-30T16:20:24.379Z,13.07
2022-11-30T16:22:53.037Z,11.17
2022-11-30T16:25:22.912Z,13.10
2022-11-30T16:27:53.387Z,10.87
2022-11-30T16:30:24.499Z,12.30
2022-11-30T16:33:22.477Z,13.40
2022-11-30T16:35:56.787Z,12.33
2022-11-30T16:38:30.125Z,13.03
2022-11-30T16:41:23.052Z,13.33
2022-11-30T17:07:43.532Z,15.47
2022-11-30T17:10:13.997Z,16.37
2022-11-30T17:12:57.530Z,15.97
2022-11-30T17:21:36.935Z,16.93
2022-11-30T17:26:52.828Z,28.40
2022-11-30T17:29:21.035Z,23.67
2022-11-30T17:31:49.199Z,16.73
2022-11-30T17:34:17.472Z,16.83
2022-11-30T17:36:50.890Z,20.40
2022-11-30T17:39:19.740Z,20.70
2022-11-30T17:41:47.946Z,19.43
2022-11-30T17:44:16.255Z,15.27
2022-11-30T17:46:48.139Z,16.97
2022-11-30T17:49:16.639Z,14.33
2022-11-30T17:51:46.409Z,17.57
2022-11-30T17:54:14.937Z,15.53
2022-11-30T17:56:43.607Z,13.87
2022-11-30T17:59:11.825Z,15.57
2022-11-30T18:01:40.527Z,11.50
2022-11-30T18:04:10.427Z,20.80
2022-11-30T18:06:38.871Z,18.30
2022-11-30T18:09:08.735Z,16.20
2022-11-30T18:11:37.595Z,16.40
2022-11-30T18:14:06.155Z,19.87
2022-11-30T18:16:38.426Z,15.20
2022-11-30T18:27:18.807Z,17.60
2022-11-30T18:33:24.205Z,16.60
2022-11-30T20:10:34.625Z,18.93
